Time;durP1;ratioP1;P1;durP2;ratioP2;P2;SDS_P1;SDS_P2;PMS_P1;PMS_P2;Temp;Humidity;BMP_temperature;BMP_pressure;BME280_temperature;BME280_humidity;BME280_pressure;Samples;Min_cycle;Max_cycle;Signal;HPM_P1;HPM_P2
2023/12/27 00:01:18;;;;;;;4.73;1.90;;;10.10;99.90;;;;;;5042020;28;20203;-85
2023/12/27 00:03:43;;;;;;;2.57;1.70;;;10.30;99.90;;;;;;5033337;28;20182;-87
2023/12/27 00:06:09;;;;;;;5.43;1.93;;;10.80;99.90;;;;;;5035821;28;20176;-85
2023/12/27 00:08:35;;;;;;;2.93;1.70;;;10.30;99.90;;;;;;5033363;28;20190;-86
2023/12/27 00:11:03;;;;;;;2.58;1.92;;;10.70;99.90;;;;;;5034707;28;20188;-85
2023/12/27 00:13:29;;;;;;;1.83;1.45;;;10.50;99.90;;;;;;5048402;28;20207;-86
2023/12/27 00:15:54;;;;;;;1.50;1.40;;;10.80;99.90;;;;;;5053890;28;20215;-86
2023/12/27 00:18:20;;;;;;;3.80;1.60;;;10.90;99.90;;;;;;5050633;28;20181;-86
2023/12/27 00:20:47;;;;;;;3.30;1.67;;;10.40;99.90;;;;;;5052212;28;20643;-85
2023/12/27 00:23:13;;;;;;;1.85;1.05;;;10.40;99.90;;;;;;5052188;28;20187;-86
2023/12/27 00:25:39;;;;;;;1.63;1.33;;;10.50;99.90;;;;;;5053170;28;20210;-85
2023/12/27 00:28:05;;;;;;;3.30;1.30;;;10.50;99.90;;;;;;5050511;28;20224;-86
2023/12/27 00:30:31;;;;;;;1.67;1.40;;;10.40;99.90;;;;;;5049704;28;20183;-86
2023/12/27 00:32:57;;;;;;;1.67;1.40;;;10.70;99.90;;;;;;5040734;28;20236;-86
2023/12/27 00:35:22;;;;;;;1.50;1.40;;;10.50;99.90;;;;;;5048391;28;20202;-86
2023/12/27 00:37:48;;;;;;;2.53;1.50;;;10.90;99.90;;;;;;5035299;28;20431;-86
2023/12/27 00:40:14;;;;;;;2.63;1.33;;;10.40;99.90;;;;;;5029386;28;20187;-86
2023/12/27 00:42:39;;;;;;;1.30;1.20;;;10.60;99.90;;;;;;5029276;28;20224;-85
2023/12/27 00:45:05;;;;;;;3.10;1.43;;;10.40;99.90;;;;;;5035099;28;20697;-85
2023/12/27 00:47:31;;;;;;;1.48;1.30;;;10.60;99.90;;;;;;5033963;28;20190;-85
2023/12/27 00:49:57;;;;;;;1.80;1.37;;;10.70;99.90;;;;;;5032496;28;20236;-85
2023/12/27 00:52:22;;;;;;;1.80;1.15;;;10.60;99.90;;;;;;5035485;28;20276;-86
2023/12/27 00:54:48;;;;;;;2.70;1.27;;;10.40;99.90;;;;;;5028500;28;20323;-86
2023/12/27 00:57:13;;;;;;;2.13;1.30;;;10.50;99.90;;;;;;5033098;28;20663;-85
2023/12/27 00:59:39;;;;;;;2.03;1.40;;;10.90;99.90;;;;;;5030935;28;20191;-85
2023/12/27 01:02:06;;;;;;;1.10;1.00;;;10.60;99.90;;;;;;5030518;28;20530;-86
2023/12/27 01:04:33;;;;;;;1.67;1.20;;;10.40;99.90;;;;;;5029206;28;20748;-85
2023/12/27 01:06:58;;;;;;;2.35;1.00;;;10.50;99.90;;;;;;5033814;28;20277;-87
2023/12/27 01:09:25;;;;;;;1.90;1.33;;;10.40;99.90;;;;;;5031265;28;20212;-86
2023/12/27 01:11:50;;;;;;;2.45;1.30;;;10.40;99.90;;;;;;5032488;28;20703;-86
2023/12/27 01:14:16;;;;;;;2.77;1.40;;;10.40;99.90;;;;;;5030814;28;20224;-86
2023/12/27 01:16:42;;;;;;;2.20;1.50;;;10.40;99.90;;;;;;5032879;28;20236;-86
2023/12/27 01:19:11;;;;;;;2.70;1.10;;;10.40;99.90;;;;;;5030994;28;20197;-85
2023/12/27 01:21:36;;;;;;;1.55;1.35;;;10.60;99.90;;;;;;5030812;28;20188;-85
2023/12/27 01:24:02;;;;;;;1.63;1.00;;;10.50;99.90;;;;;;5032376;28;20212;-85
2023/12/27 01:26:27;;;;;;;2.13;1.37;;;10.70;99.90;;;;;;5032924;28;20184;-85
2023/12/27 01:28:53;;;;;;;3.50;1.20;;;11.00;99.90;;;;;;5028742;28;20208;-85
2023/12/27 01:31:18;;;;;;;2.60;1.43;;;10.70;99.90;;;;;;5033684;28;20200;-85
2023/12/27 01:33:44;;;;;;;2.67;1.60;;;10.60;99.90;;;;;;5030515;28;20220;-86
2023/12/27 01:36:10;;;;;;;2.17;1.53;;;10.70;99.90;;;;;;5029269;28;20194;-85
2023/12/27 01:38:35;;;;;;;1.60;1.23;;;10.50;99.90;;;;;;5027628;28;20188;-86
2023/12/27 01:41:01;;;;;;;3.73;1.47;;;11.00;99.90;;;;;;5028967;28;20532;-86
2023/12/27 01:43:26;;;;;;;2.00;1.80;;;10.70;99.90;;;;;;5027596;28;20239;-85
2023/12/27 01:45:52;;;;;;;1.60;1.30;;;10.70;99.90;;;;;;5029056;28;20201;-86
2023/12/27 01:48:21;;;;;;;3.00;1.80;;;11.00;99.90;;;;;;5030723;28;20181;-85
2023/12/27 01:50:50;;;;;;;3.47;1.73;;;10.60;99.90;;;;;;5040538;28;20189;-86
2023/12/27 01:53:17;;;;;;;2.40;1.70;;;10.50;99.90;;;;;;5043989;28;20244;-86
2023/12/27 01:55:43;;;;;;;2.00;1.40;;;10.40;99.90;;;;;;5045343;28;20217;-86
2023/12/27 01:58:11;;;;;;;1.75;1.55;;;10.80;99.90;;;;;;5028068;28;20217;-86
2023/12/27 02:00:39;;;;;;;1.80;1.35;;;10.30;99.90;;;;;;5032541;28;20230;-86
2023/12/27 02:03:05;;;;;;;2.13;1.48;;;10.40;99.90;;;;;;5027766;28;20199;-86
2023/12/27 02:05:31;;;;;;;2.40;1.80;;;10.40;99.90;;;;;;5017545;28;20212;-85
2023/12/27 02:07:58;;;;;;;2.40;1.75;;;10.20;99.90;;;;;;5036805;28;20662;-86
2023/12/27 02:10:24;;;;;;;2.35;1.52;;;10.50;99.90;;;;;;5038345;28;20184;-84
2023/12/27 02:12:49;;;;;;;3.03;1.40;;;10.50;99.90;;;;;;5032938;28;20200;-85
2023/12/27 02:15:15;;;;;;;1.83;1.67;;;10.60;99.90;;;;;;5030073;28;20218;-85
2023/12/27 02:17:42;;;;;;;1.93;1.73;;;10.20;99.90;;;;;;5029758;28;20228;-85
2023/12/27 02:20:09;;;;;;;1.77;1.60;;;10.30;99.90;;;;;;5028002;28;20191;-86
2023/12/27 02:22:35;;;;;;;2.97;1.40;;;9.90;99.90;;;;;;5026710;28;20600;-86
2023/12/27 02:25:01;;;;;;;1.75;1.50;;;10.00;99.90;;;;;;5029464;28;20721;-85
2023/12/27 02:27:28;;;;;;;3.00;2.17;;;10.30;99.90;;;;;;5036137;28;20199;-85
2023/12/27 02:29:53;;;;;;;2.75;1.70;;;9.90;99.90;;;;;;5026594;28;20187;-84
2023/12/27 02:32:19;;;;;;;3.63;1.60;;;10.10;99.90;;;;;;5028420;28;20188;-86
2023/12/27 02:34:44;;;;;;;2.50;1.60;;;10.50;99.90;;;;;;5029391;28;20219;-86
2023/12/27 02:37:10;;;;;;;3.87;1.40;;;10.10;99.90;;;;;;5040600;28;20197;-85
2023/12/27 02:39:36;;;;;;;2.93;1.37;;;10.00;99.90;;;;;;5026607;28;20421;-86
2023/12/27 02:42:01;;;;;;;1.87;1.50;;;9.90;99.90;;;;;;5031085;28;20187;-85
2023/12/27 02:44:27;;;;;;;3.53;1.80;;;9.70;99.90;;;;;;5030632;28;20291;-85
2023/12/27 02:46:53;;;;;;;1.60;1.23;;;9.90;99.90;;;;;;5031910;28;20588;-86
2023/12/27 02:49:19;;;;;;;1.92;1.70;;;9.70;99.90;;;;;;5033110;28;20184;-85
2023/12/27 02:51:44;;;;;;;2.27;1.50;;;9.90;99.90;;;;;;5038264;28;20186;-86
2023/12/27 02:54:10;;;;;;;2.53;1.50;;;10.30;99.90;;;;;;5027279;28;20281;-86
2023/12/27 02:56:35;;;;;;;1.90;1.80;;;9.90;99.90;;;;;;5038256;28;20277;-86
2023/12/27 02:59:01;;;;;;;4.70;1.70;;;9.80;99.90;;;;;;5028397;28;20189;-86
2023/12/27 03:01:26;;;;;;;3.37;1.77;;;9.60;99.90;;;;;;5031059;28;20245;-86
2023/12/27 03:03:52;;;;;;;2.00;1.70;;;9.60;99.90;;;;;;5031971;28;20587;-86
2023/12/27 03:06:17;;;;;;;1.50;1.40;;;10.00;99.90;;;;;;5030606;28;20194;-86
2023/12/27 03:08:43;;;;;;;3.63;2.60;;;10.00;99.90;;;;;;5038879;28;20199;-86
2023/12/27 03:11:08;;;;;;;2.40;1.83;;;10.10;99.90;;;;;;5029770;28;20188;-85
2023/12/27 03:13:34;;;;;;;2.20;1.77;;;9.80;99.90;;;;;;5023870;28;20632;-85
2023/12/27 03:16:06;;;;;;;3.17;1.50;;;9.60;99.90;;;;;;5028927;28;20179;-86
2023/12/27 03:18:33;;;;;;;1.65;1.50;;;9.80;99.90;;;;;;5026770;28;20405;-85
2023/12/27 03:20:59;;;;;;;5.70;1.85;;;9.80;99.90;;;;;;5029412;28;20186;-85
2023/12/27 03:23:24;;;;;;;1.90;1.55;;;9.70;99.90;;;;;;5027970;28;20202;-86
2023/12/27 03:25:50;;;;;;;2.17;1.87;;;9.60;99.90;;;;;;5032548;28;20235;-86
2023/12/27 03:28:16;;;;;;;2.43;1.57;;;10.10;99.90;;;;;;5027469;28;20199;-85
2023/12/27 03:30:41;;;;;;;4.87;1.67;;;10.10;99.90;;;;;;5030312;28;20192;-86
2023/12/27 03:33:07;;;;;;;2.10;1.57;;;9.70;99.90;;;;;;5030512;28;20691;-85
2023/12/27 03:35:32;;;;;;;2.63;1.77;;;9.70;99.90;;;;;;5033960;28;20203;-85
2023/12/27 03:37:58;;;;;;;1.87;1.77;;;10.10;99.90;;;;;;5029073;28;20702;-87
2023/12/27 03:40:23;;;;;;;2.20;1.50;;;9.60;99.90;;;;;;5030579;28;20668;-85
2023/12/27 03:42:49;;;;;;;2.50;1.40;;;9.70;99.90;;;;;;5028609;28;20911;-86
2023/12/27 03:45:17;;;;;;;2.60;1.50;;;10.20;99.90;;;;;;5040166;28;20192;-86
2023/12/27 03:47:43;;;;;;;3.40;1.70;;;9.90;99.90;;;;;;5049559;28;20199;-86
2023/12/27 03:50:09;;;;;;;2.30;1.60;;;9.90;99.90;;;;;;5037366;28;20195;-86
2023/12/27 03:52:34;;;;;;;2.73;1.70;;;9.80;99.90;;;;;;5034253;28;20533;-86
2023/12/27 03:55:00;;;;;;;2.33;1.47;;;10.10;99.90;;;;;;5032221;28;20452;-85
2023/12/27 03:57:25;;;;;;;1.83;1.67;;;9.60;99.90;;;;;;5044969;28;20564;-85
2023/12/27 03:59:51;;;;;;;2.70;1.73;;;10.00;99.90;;;;;;5080650;28;20227;-86
2023/12/27 04:02:16;;;;;;;2.43;1.80;;;9.90;99.90;;;;;;5051260;28;20195;-86
2023/12/27 04:04:42;;;;;;;2.50;1.47;;;9.70;99.90;;;;;;5014241;28;20219;-86
2023/12/27 04:07:16;;;;;;;2.23;1.60;;;9.60;99.90;;;;;;5029857;28;20275;-87
2023/12/27 04:09:42;;;;;;;3.45;1.90;;;9.60;99.90;;;;;;5026855;28;20195;-86
2023/12/27 04:12:08;;;;;;;2.47;1.83;;;9.70;99.90;;;;;;5040385;28;20192;-85
2023/12/27 04:14:33;;;;;;;2.00;1.60;;;9.90;99.90;;;;;;5030632;28;20211;-86
2023/12/27 04:16:59;;;;;;;3.00;1.60;;;9.70;99.90;;;;;;5028412;28;20191;-86
2023/12/27 04:19:25;;;;;;;2.90;1.80;;;10.20;99.90;;;;;;5025526;28;20184;-86
2023/12/27 04:21:50;;;;;;;3.43;1.70;;;9.80;99.90;;;;;;5029317;28;20196;-86
2023/12/27 04:24:16;;;;;;;4.03;2.20;;;9.70;99.90;;;;;;5033622;28;20216;-86
2023/12/27 04:26:41;;;;;;;2.10;1.67;;;9.80;99.90;;;;;;5033145;28;20202;-86
2023/12/27 04:29:10;;;;;;;3.23;1.83;;;9.70;99.90;;;;;;5030051;28;20203;-86
2023/12/27 04:31:37;;;;;;;2.28;2.03;;;9.70;99.90;;;;;;5030831;28;20283;-85
2023/12/27 04:34:03;;;;;;;2.30;1.70;;;10.30;99.90;;;;;;5032711;28;20310;-85
2023/12/27 04:36:29;;;;;;;1.70;1.60;;;10.40;99.90;;;;;;5026571;28;20271;-85
2023/12/27 04:38:54;;;;;;;1.80;1.67;;;10.10;99.90;;;;;;5046014;28;20417;-85
2023/12/27 04:41:20;;;;;;;2.47;2.00;;;10.30;99.90;;;;;;5042397;28;20217;-86
2023/12/27 04:43:45;;;;;;;3.93;2.63;;;9.70;99.90;;;;;;5036428;28;20465;-86
2023/12/27 04:46:11;;;;;;;2.37;2.10;;;10.00;99.90;;;;;;5032810;28;20176;-86
2023/12/27 04:48:36;;;;;;;3.00;1.83;;;10.00;99.90;;;;;;5025247;28;20193;-86
2023/12/27 04:51:02;;;;;;;3.03;1.90;;;9.60;99.90;;;;;;5032463;28;20188;-85
2023/12/27 04:53:28;;;;;;;1.87;1.63;;;9.90;99.90;;;;;;5028724;28;20210;-85
2023/12/27 04:55:53;;;;;;;3.87;2.20;;;9.90;99.90;;;;;;5035329;28;20229;-85
2023/12/27 04:58:19;;;;;;;3.10;2.57;;;9.20;99.90;;;;;;5028713;28;20187;-85
2023/12/27 05:00:44;;;;;;;2.50;1.70;;;10.20;99.90;;;;;;5032936;28;20198;-86
2023/12/27 05:03:10;;;;;;;2.53;2.33;;;9.80;99.90;;;;;;5031870;28;20183;-86
2023/12/27 05:05:35;;;;;;;2.37;2.10;;;9.50;99.90;;;;;;5033076;28;20219;-87
2023/12/27 05:08:01;;;;;;;3.57;2.30;;;9.50;99.90;;;;;;5027939;28;20671;-83
2023/12/27 05:10:26;;;;;;;3.30;2.27;;;9.90;99.90;;;;;;5023679;28;20183;-86
2023/12/27 05:12:53;;;;;;;2.57;2.07;;;9.30;99.90;;;;;;5030340;28;20278;-86
2023/12/27 05:15:19;;;;;;;2.10;1.90;;;9.40;99.90;;;;;;5031645;28;20226;-85
2023/12/27 05:17:45;;;;;;;3.35;1.95;;;8.60;99.90;;;;;;5037426;28;20604;-86
2023/12/27 05:20:11;;;;;;;3.40;2.13;;;9.60;99.90;;;;;;5033598;28;20195;-85
2023/12/27 05:22:39;;;;;;;3.80;1.80;;;9.10;99.90;;;;;;5046310;28;20257;-86
2023/12/27 05:25:06;;;;;;;2.55;1.90;;;9.50;99.90;;;;;;5043881;28;20679;-85
2023/12/27 05:27:31;;;;;;;1.85;1.40;;;9.00;99.90;;;;;;5050480;28;20189;-85
2023/12/27 05:29:58;;;;;;;2.70;1.80;;;9.00;99.90;;;;;;5044779;28;20191;-85
2023/12/27 05:32:24;;;;;;;1.67;1.58;;;8.60;99.90;;;;;;5046394;28;20228;-85
2023/12/27 05:34:49;;;;;;;3.20;1.73;;;9.20;99.90;;;;;;5039862;28;20230;-85
2023/12/27 05:37:15;;;;;;;2.70;2.20;;;9.00;99.90;;;;;;5041426;28;20226;-86
2023/12/27 05:39:42;;;;;;;3.67;2.53;;;9.20;99.90;;;;;;5048791;28;20188;-86
2023/12/27 05:42:07;;;;;;;2.10;1.90;;;9.20;99.90;;;;;;5052183;28;20252;-86
2023/12/27 05:44:33;;;;;;;2.50;1.73;;;9.10;99.90;;;;;;5035381;28;20266;-85
2023/12/27 05:47:00;;;;;;;2.90;2.60;;;9.10;99.90;;;;;;5029097;28;20191;-86
2023/12/27 05:49:26;;;;;;;2.65;2.17;;;8.60;99.90;;;;;;5049986;28;20194;-86
2023/12/27 05:51:51;;;;;;;4.13;2.30;;;8.80;99.90;;;;;;5049701;28;20186;-86
2023/12/27 05:54:18;;;;;;;2.97;2.70;;;8.30;99.90;;;;;;5049102;28;20221;-85
2023/12/27 05:56:43;;;;;;;5.97;2.17;;;8.50;99.90;;;;;;5032144;28;20187;-86
2023/12/27 05:59:09;;;;;;;6.83;3.60;;;8.70;99.90;;;;;;5038364;28;20185;-86
2023/12/27 06:01:35;;;;;;;3.00;2.30;;;8.40;99.90;;;;;;5066922;28;20194;-86
2023/12/27 06:04:04;;;;;;;3.20;2.30;;;8.30;99.90;;;;;;5035519;28;20438;-86
2023/12/27 06:06:30;;;;;;;2.63;2.42;;;8.40;99.90;;;;;;5032867;28;20253;-86
2023/12/27 06:08:56;;;;;;;4.90;3.07;;;8.00;99.90;;;;;;5027179;28;20281;-86
2023/12/27 06:11:21;;;;;;;2.80;2.37;;;8.50;99.90;;;;;;5032090;28;20442;-86
2023/12/27 06:13:47;;;;;;;3.20;2.13;;;8.70;99.90;;;;;;5023537;28;20489;-86
2023/12/27 06:16:12;;;;;;;3.00;2.70;;;8.30;99.90;;;;;;5031394;28;20730;-86
2023/12/27 06:18:38;;;;;;;4.90;3.13;;;8.30;99.90;;;;;;5028403;28;20863;-86
2023/12/27 06:21:04;;;;;;;4.03;2.60;;;8.70;99.90;;;;;;5032899;28;20270;-85
2023/12/27 06:23:29;;;;;;;3.67;2.40;;;8.30;99.90;;;;;;5033419;28;20178;-86
2023/12/27 06:25:57;;;;;;;2.33;2.10;;;8.10;99.90;;;;;;5030032;28;20651;-87
2023/12/27 06:28:22;;;;;;;3.75;2.35;;;8.20;99.90;;;;;;5013143;28;20256;-86
2023/12/27 06:30:48;;;;;;;3.10;2.67;;;7.90;99.90;;;;;;5027354;28;20250;-87
2023/12/27 06:33:13;;;;;;;4.67;3.20;;;8.30;99.90;;;;;;5031016;28;20186;-86
2023/12/27 06:35:39;;;;;;;4.60;2.90;;;7.70;99.90;;;;;;5034161;28;20209;-86
2023/12/27 06:38:04;;;;;;;4.10;3.10;;;8.00;99.90;;;;;;5029790;28;20183;-86
2023/12/27 06:40:30;;;;;;;5.23;3.00;;;7.90;99.90;;;;;;5029118;28;20193;-85
2023/12/27 06:42:55;;;;;;;3.33;3.03;;;7.80;99.90;;;;;;5030402;28;20744;-86
2023/12/27 06:45:21;;;;;;;3.53;3.07;;;8.20;99.90;;;;;;5030839;28;20272;-86
2023/12/27 06:47:46;;;;;;;4.33;3.20;;;7.70;99.90;;;;;;5028486;28;20190;-86
2023/12/27 06:50:12;;;;;;;4.30;2.43;;;7.70;99.90;;;;;;5031273;28;20224;-86
2023/12/27 06:52:38;;;;;;;4.87;3.00;;;7.90;99.90;;;;;;5033552;28;20325;-86
2023/12/27 06:55:04;;;;;;;3.93;3.10;;;7.90;99.90;;;;;;5029171;28;20221;-86
2023/12/27 06:57:30;;;;;;;3.92;2.90;;;7.60;99.90;;;;;;5033755;28;20196;-86
2023/12/27 06:59:55;;;;;;;3.60;3.30;;;7.60;99.90;;;;;;5029606;28;20190;-86
2023/12/27 07:02:21;;;;;;;4.60;3.37;;;7.80;99.90;;;;;;5065390;28;20170;-85
2023/12/27 07:04:46;;;;;;;4.13;3.73;;;8.20;99.90;;;;;;5034128;28;20226;-85
2023/12/27 07:07:12;;;;;;;4.10;3.60;;;7.80;99.90;;;;;;5033717;28;20200;-85
2023/12/27 07:09:38;;;;;;;6.43;4.50;;;7.80;99.90;;;;;;5031091;28;20187;-85
2023/12/27 07:12:04;;;;;;;3.97;3.40;;;7.80;99.90;;;;;;5033407;28;20181;-86
2023/12/27 07:14:29;;;;;;;5.15;2.90;;;7.60;99.90;;;;;;5029400;28;20217;-85
2023/12/27 07:16:55;;;;;;;7.23;3.87;;;7.70;99.90;;;;;;5035377;28;20201;-84
2023/12/27 07:19:21;;;;;;;5.40;3.90;;;8.10;99.90;;;;;;5034764;28;20190;-85
2023/12/27 07:21:46;;;;;;;4.10;3.70;;;7.70;99.90;;;;;;5025103;28;20188;-85
2023/12/27 07:24:12;;;;;;;4.00;3.60;;;7.90;99.90;;;;;;5030037;28;20674;-86
2023/12/27 07:26:38;;;;;;;6.40;4.10;;;7.80;99.90;;;;;;5029351;28;20446;-86
2023/12/27 07:29:04;;;;;;;6.83;3.50;;;7.80;99.90;;;;;;5027875;28;20183;-86
2023/12/27 07:31:29;;;;;;;7.93;4.20;;;7.70;99.90;;;;;;5046856;28;20660;-85
2023/12/27 07:33:55;;;;;;;6.10;4.90;;;7.40;99.90;;;;;;5045722;28;20252;-86
2023/12/27 07:36:21;;;;;;;5.17;3.63;;;8.20;99.90;;;;;;5054622;28;20229;-86
2023/12/27 07:38:46;;;;;;;6.87;3.93;;;8.00;99.90;;;;;;5051664;28;20443;-86
2023/12/27 07:41:12;;;;;;;7.23;4.20;;;8.00;99.90;;;;;;5036193;28;20456;-86
2023/12/27 07:43:37;;;;;;;4.90;4.40;;;7.80;99.90;;;;;;5030448;28;20262;-86
2023/12/27 07:46:03;;;;;;;8.27;4.30;;;8.30;99.90;;;;;;5032464;28;20223;-86
2023/12/27 07:48:29;;;;;;;4.40;4.00;;;8.00;99.90;;;;;;5027443;28;20340;-86
2023/12/27 07:50:55;;;;;;;5.10;3.97;;;7.90;99.90;;;;;;5025006;28;20178;-85
2023/12/27 07:53:21;;;;;;;4.35;3.63;;;8.30;99.90;;;;;;5025101;28;20190;-86
2023/12/27 07:55:47;;;;;;;7.30;3.70;;;7.90;99.90;;;;;;5028833;28;20711;-85
2023/12/27 07:58:12;;;;;;;5.70;4.10;;;8.40;99.90;;;;;;5034111;28;20441;-85
2023/12/27 08:00:38;;;;;;;5.13;4.00;;;7.90;99.90;;;;;;5032762;28;20187;-85
2023/12/27 08:03:08;;;;;;;9.50;4.23;;;7.70;99.90;;;;;;5036903;28;20647;-85
2023/12/27 08:05:34;;;;;;;8.18;4.60;;;8.30;99.90;;;;;;5033779;28;20202;-85
2023/12/27 08:08:00;;;;;;;4.05;3.65;;;8.00;99.90;;;;;;5035741;28;20178;-85
2023/12/27 08:10:25;;;;;;;6.77;4.13;;;7.70;99.90;;;;;;5035439;28;20175;-87
2023/12/27 08:12:51;;;;;;;6.73;3.73;;;7.80;99.90;;;;;;5035187;28;20613;-86
2023/12/27 08:15:16;;;;;;;3.97;3.53;;;8.20;99.90;;;;;;5038051;28;20262;-85
2023/12/27 08:17:42;;;;;;;5.27;3.67;;;8.10;99.90;;;;;;5044733;28;20282;-85
2023/12/27 08:20:08;;;;;;;3.97;3.60;;;8.30;99.90;;;;;;5043382;28;20182;-87
2023/12/27 08:22:34;;;;;;;4.00;3.60;;;8.40;99.90;;;;;;5022252;28;20179;-86
2023/12/27 08:24:59;;;;;;;4.90;4.33;;;8.60;99.90;;;;;;5035885;28;20279;-87
2023/12/27 08:27:25;;;;;;;5.17;3.73;;;8.60;99.90;;;;;;5036821;28;20186;-87
2023/12/27 08:29:50;;;;;;;4.33;3.77;;;8.70;99.90;;;;;;5034693;28;20584;-87
2023/12/27 08:32:16;;;;;;;6.30;3.90;;;8.00;99.90;;;;;;5034598;28;20564;-87
2023/12/27 08:34:41;;;;;;;4.30;3.90;;;8.30;99.90;;;;;;5029356;28;20771;-87
2023/12/27 08:37:07;;;;;;;5.20;4.50;;;8.80;99.90;;;;;;5038518;28;20197;-87
2023/12/27 08:39:32;;;;;;;7.47;4.83;;;8.30;99.90;;;;;;5038083;28;20189;-87
2023/12/27 08:41:58;;;;;;;5.63;4.43;;;8.60;99.90;;;;;;5037131;28;20191;-86
2023/12/27 08:44:23;;;;;;;4.73;4.10;;;8.30;99.90;;;;;;5052882;28;20195;-86
2023/12/27 08:46:49;;;;;;;5.73;4.20;;;8.30;99.90;;;;;;5054634;28;20190;-87
2023/12/27 08:49:14;;;;;;;5.90;4.43;;;9.00;99.90;;;;;;5056787;28;20166;-86
2023/12/27 08:51:40;;;;;;;5.17;4.37;;;8.50;99.90;;;;;;5057360;28;20267;-86
2023/12/27 08:54:05;;;;;;;5.30;4.87;;;8.90;99.90;;;;;;5057123;28;20233;-87
2023/12/27 08:56:31;;;;;;;5.27;4.47;;;8.50;99.90;;;;;;5055657;28;20176;-87
2023/12/27 08:58:56;;;;;;;5.23;4.20;;;9.10;99.90;;;;;;5042383;28;20202;-87
2023/12/27 09:01:22;;;;;;;6.90;3.80;;;8.90;99.90;;;;;;5035473;28;20183;-86
2023/12/27 09:03:49;;;;;;;6.27;4.40;;;9.10;99.90;;;;;;5041588;28;20211;-87
2023/12/27 09:06:14;;;;;;;6.72;4.68;;;8.70;99.90;;;;;;5056821;28;20182;-85
2023/12/27 09:08:40;;;;;;;6.77;5.33;;;8.70;99.90;;;;;;5053988;28;20194;-87
2023/12/27 09:11:06;;;;;;;12.37;4.73;;;8.70;99.90;;;;;;5058230;28;20229;-87
2023/12/27 09:13:31;;;;;;;4.53;4.07;;;9.10;99.90;;;;;;5053557;28;20271;-86
2023/12/27 09:15:57;;;;;;;4.77;4.27;;;8.80;99.90;;;;;;5041873;28;20207;-86
2023/12/27 09:18:22;;;;;;;7.57;4.83;;;9.00;99.90;;;;;;5040926;28;20253;-86
2023/12/27 09:20:48;;;;;;;4.10;3.23;;;9.10;99.90;;;;;;5032685;28;20196;-85
2023/12/27 09:23:14;;;;;;;4.47;3.10;;;9.20;99.90;;;;;;5039866;28;20196;-86
2023/12/27 09:25:40;;;;;;;5.50;3.43;;;9.30;99.90;;;;;;5043429;28;20207;-86
2023/12/27 09:28:05;;;;;;;3.45;3.00;;;9.60;99.90;;;;;;5037439;28;20187;-86
2023/12/27 09:30:31;;;;;;;5.13;2.67;;;9.70;99.90;;;;;;5035588;28;20262;-86
2023/12/27 09:32:57;;;;;;;5.80;3.17;;;;;;;;;;5034177;28;20192;-86
2023/12/27 09:35:22;;;;;;;2.87;2.67;;;10.60;99.90;;;;;;5036290;28;20752;-85
2023/12/27 09:37:48;;;;;;;7.20;3.20;;;11.30;99.90;;;;;;5065452;22;20474;-89
2023/12/27 09:40:14;;;;;;;5.10;3.40;;;11.70;99.90;;;;;;5072474;28;20218;-89
2023/12/27 09:42:40;;;;;;;4.97;2.97;;;11.50;99.90;;;;;;5072169;28;20177;-89
2023/12/27 09:45:11;;;;;;;3.90;3.10;;;11.40;99.90;;;;;;5074664;28;20209;-89
2023/12/27 09:47:39;;;;;;;6.22;3.67;;;11.10;99.90;;;;;;5067858;28;20197;-89
2023/12/27 09:50:06;;;;;;;4.90;3.15;;;11.10;99.90;;;;;;5087021;28;20188;-89
2023/12/27 09:52:33;;;;;;;4.00;3.13;;;10.70;99.90;;;;;;5048008;28;20542;-89
2023/12/27 09:55:01;;;;;;;6.22;3.85;;;10.50;99.90;;;;;;5070802;28;20210;-89
2023/12/27 09:57:27;;;;;;;4.55;3.95;;;10.20;99.90;;;;;;5066395;28;20217;-89
2023/12/27 09:59:56;;;;;;;4.80;3.33;;;10.50;99.90;;;;;;5068226;28;20194;-89
2023/12/27 10:02:28;;;;;;;6.35;3.10;;;10.20;99.90;;;;;;5072557;28;20189;-89
2023/12/27 10:05:07;;;;;;;3.67;2.88;;;9.90;99.90;;;;;;5057618;28;20204;-89
2023/12/27 10:07:33;;;;;;;3.35;2.88;;;11.60;99.90;;;;;;5076909;28;20208;-89
2023/12/27 10:09:59;;;;;;;3.65;3.03;;;13.00;99.90;;;;;;5074284;28;20184;-89
2023/12/27 10:12:25;;;;;;;4.55;3.30;;;13.20;99.90;;;;;;5085517;28;20177;-90
2023/12/27 10:14:55;;;;;;;7.03;3.60;;;13.30;99.10;;;;;;5069653;28;20223;-88
2023/12/27 10:17:21;;;;;;;3.53;3.20;;;12.80;99.60;;;;;;5070988;28;20902;-88
2023/12/27 10:19:46;;;;;;;3.67;2.60;;;12.40;99.90;;;;;;5069476;28;20216;-88
2023/12/27 10:22:13;;;;;;;2.60;2.40;;;12.50;99.40;;;;;;5058949;28;20579;-88
2023/12/27 10:24:39;;;;;;;2.45;1.95;;;12.60;98.80;;;;;;5069869;28;20223;-88
2023/12/27 10:27:07;;;;;;;5.07;2.53;;;12.60;97.70;;;;;;5071163;28;20280;-88
2023/12/27 10:29:33;;;;;;;3.70;3.30;;;13.20;98.00;;;;;;5065827;28;20673;-88
2023/12/27 10:31:59;;;;;;;6.25;3.00;;;12.30;97.80;;;;;;5085144;28;20197;-87
2023/12/27 10:34:25;;;;;;;4.90;2.40;;;12.30;98.20;;;;;;5107635;28;20219;-88
2023/12/27 10:36:51;;;;;;;2.70;2.50;;;12.50;98.50;;;;;;5080861;28;20189;-88
2023/12/27 10:39:18;;;;;;;3.77;2.20;;;12.30;98.70;;;;;;5054347;28;20533;-88
2023/12/27 10:41:43;;;;;;;2.50;2.25;;;12.20;98.30;;;;;;5069369;28;20846;-89
2023/12/27 10:44:11;;;;;;;3.63;2.30;;;13.30;97.60;;;;;;5067837;28;20213;-90
2023/12/27 10:46:38;;;;;;;3.20;2.58;;;13.20;95.90;;;;;;5067561;28;20191;-90
2023/12/27 10:49:04;;;;;;;2.70;2.50;;;13.70;95.60;;;;;;5069342;28;20229;-88
2023/12/27 10:51:30;;;;;;;3.30;2.13;;;14.80;94.80;;;;;;5069750;28;20215;-88
2023/12/27 10:54:00;;;;;;;5.07;3.10;;;16.20;93.50;;;;;;5072160;28;20259;-88
2023/12/27 10:56:26;;;;;;;2.92;2.05;;;16.00;91.40;;;;;;5071113;28;20238;-88
2023/12/27 10:58:52;;;;;;;2.30;2.10;;;16.20;88.20;;;;;;5068118;28;20187;-88
2023/12/27 11:01:19;;;;;;;3.28;2.97;;;16.20;88.30;;;;;;5071538;28;20180;-88
2023/12/27 11:03:49;;;;;;;3.15;2.22;;;16.80;88.30;;;;;;5068783;28;20196;-88
2023/12/27 11:06:17;;;;;;;5.30;2.38;;;16.50;87.30;;;;;;5073146;28;20212;-88
2023/12/27 11:08:45;;;;;;;3.35;2.00;;;15.90;85.60;;;;;;5068619;28;20686;-88
2023/12/27 11:11:13;;;;;;;2.03;1.80;;;16.60;85.30;;;;;;5073917;28;20295;-88
2023/12/27 11:13:39;;;;;;;2.08;1.88;;;16.00;84.40;;;;;;5070190;28;20677;-90
2023/12/27 11:16:07;;;;;;;2.10;2.00;;;15.70;84.10;;;;;;5053412;28;20185;-89
2023/12/27 11:18:35;;;;;;;3.90;2.40;;;15.80;82.90;;;;;;5070180;28;20206;-88
2023/12/27 11:21:00;;;;;;;6.80;2.67;;;16.60;81.70;;;;;;5070441;28;20215;-89
2023/12/27 11:23:27;;;;;;;3.50;2.43;;;15.90;81.40;;;;;;5069829;28;20181;-89
2023/12/27 11:25:55;;;;;;;6.72;2.28;;;15.80;79.90;;;;;;5080036;28;20656;-88
2023/12/27 11:28:23;;;;;;;2.30;1.95;;;15.10;81.00;;;;;;5080808;28;20185;-88
2023/12/27 11:30:48;;;;;;;2.22;1.92;;;15.30;81.70;;;;;;5073592;28;20192;-88
2023/12/27 11:33:22;;;;;;;3.80;1.87;;;15.30;81.20;;;;;;5070985;28;20243;-89
2023/12/27 11:35:48;;;;;;;2.40;2.20;;;15.40;81.70;;;;;;5071474;28;20276;-89
2023/12/27 11:38:19;;;;;;;2.57;1.80;;;17.10;82.30;;;;;;5073422;28;20216;-89
2023/12/27 11:40:45;;;;;;;3.00;2.08;;;15.50;79.50;;;;;;5073929;28;20192;-89
2023/12/27 11:43:19;;;;;;;2.35;1.85;;;15.30;80.40;;;;;;5073199;28;20284;-89
2023/12/27 11:46:06;;;;;;;2.35;2.15;;;15.30;79.40;;;;;;5071717;28;20269;-89
2023/12/27 11:48:41;;;;;;;2.20;2.00;;;14.80;79.70;;;;;;5073406;28;20180;-89
2023/12/27 11:51:36;;;;;;;4.05;2.08;;;14.70;80.90;;;;;;5090375;28;20211;-89
2023/12/27 11:54:03;;;;;;;2.40;1.90;;;15.20;80.90;;;;;;5094259;28;20220;-88
2023/12/27 11:56:33;;;;;;;1.92;1.70;;;15.10;81.20;;;;;;5079422;28;20192;-88
2023/12/27 11:59:00;;;;;;;1.63;1.52;;;15.50;81.60;;;;;;5089989;28;20221;-89
2023/12/27 12:01:31;;;;;;;3.03;2.20;;;15.30;79.80;;;;;;5092659;28;20184;-88
2023/12/27 12:04:35;;;;;;;2.55;2.05;;;15.00;80.10;;;;;;5095328;28;20222;-88
2023/12/27 12:07:35;;;;;;;3.03;2.10;;;15.20;80.10;;;;;;5106395;28;20326;-88
2023/12/27 12:10:01;;;;;;;2.15;1.95;;;15.10;79.90;;;;;;5097354;28;20240;-88
2023/12/27 12:12:27;;;;;;;2.20;1.57;;;15.30;80.80;;;;;;5076856;28;20189;-89
2023/12/27 12:14:54;;;;;;;2.50;1.98;;;14.80;80.20;;;;;;5094060;28;20312;-89
2023/12/27 12:17:21;;;;;;;2.45;2.25;;;14.60;80.80;;;;;;5096218;28;20181;-89
2023/12/27 12:19:50;;;;;;;4.65;2.50;;;14.60;81.20;;;;;;5069855;28;20270;-89
2023/12/27 12:22:18;;;;;;;2.78;2.58;;;14.10;81.30;;;;;;5071195;28;20185;-89
2023/12/27 12:24:48;;;;;;;2.80;1.83;;;14.40;83.00;;;;;;5077242;28;20684;-89
2023/12/27 12:27:22;;;;;;;1.98;1.73;;;14.30;83.50;;;;;;5077755;28;20189;-89
2023/12/27 12:29:47;;;;;;;2.60;2.08;;;14.60;83.90;;;;;;5072732;28;20278;-89
2023/12/27 12:32:13;;;;;;;2.33;1.90;;;14.30;83.80;;;;;;5054150;28;20244;-89
2023/12/27 12:34:39;;;;;;;2.40;2.10;;;14.10;83.50;;;;;;5073591;28;20213;-89
2023/12/27 12:37:04;;;;;;;3.43;2.20;;;14.40;82.80;;;;;;5067246;28;20189;-89
2023/12/27 12:39:30;;;;;;;2.87;2.10;;;14.50;83.70;;;;;;5076757;28;20709;-89
2023/12/27 12:41:56;;;;;;;3.70;2.20;;;14.80;85.70;;;;;;5071402;28;20470;-88
2023/12/27 12:44:22;;;;;;;2.23;2.03;;;13.80;84.40;;;;;;5070760;28;20207;-89
2023/12/27 12:46:47;;;;;;;2.20;2.00;;;14.20;84.30;;;;;;5072943;28;20451;-89
2023/12/27 12:49:13;;;;;;;2.43;1.90;;;13.90;84.30;;;;;;5086542;28;20479;-89